sensor_id;sensor_type;location;lat;lon;timestamp;pressure;altitude;pressure_sealevel;temperature;humidity
3254;BME280;1639;42.804;23.342;2022-10-16T00:01:14;73903.09;;;-148.52;95.76
3254;BME280;1639;42.804;23.342;2022-10-16T00:03:42;73907.22;;;-148.52;95.69
3254;BME280;1639;42.804;23.342;2022-10-16T00:06:08;73915.50;;;-148.52;95.91
3254;BME280;1639;42.804;23.342;2022-10-16T00:08:34;73919.63;;;-148.52;96.68
3254;BME280;1639;42.804;23.342;2022-10-16T00:11:08;73932.03;;;-148.52;96.01
3254;BME280;1639;42.804;23.342;2022-10-16T00:13:35;73934.13;;;-148.52;96.49
3254;BME280;1639;42.804;23.342;2022-10-16T00:16:01;73932.03;;;-148.52;96.48
3254;BME280;1639;42.804;23.342;2022-10-16T00:18:27;73921.69;;;-148.52;96.09
3254;BME280;1639;42.804;23.342;2022-10-16T00:20:54;73921.69;;;-148.52;95.99
3254;BME280;1639;42.804;23.342;2022-10-16T00:23:20;73911.34;;;-148.52;94.79
3254;BME280;1639;42.804;23.342;2022-10-16T00:25:57;73919.63;;;-148.52;94.28
3254;BME280;1639;42.804;23.342;2022-10-16T00:28:23;73923.78;;;-148.52;94.65
3254;BME280;1639;42.804;23.342;2022-10-16T00:30:49;73923.78;;;-148.52;94.69
3254;BME280;1639;42.804;23.342;2022-10-16T00:33:14;73940.31;;;-148.52;94.19
3254;BME280;1639;42.804;23.342;2022-10-16T00:35:40;73932.03;;;-148.52;94.81
3254;BME280;1639;42.804;23.342;2022-10-16T00:38:05;73915.50;;;-148.52;94.49
3254;BME280;1639;42.804;23.342;2022-10-16T00:40:31;73882.41;;;-148.52;92.51
3254;BME280;1639;42.804;23.342;2022-10-16T00:42:57;73874.13;;;-148.52;90.71
3254;BME280;1639;42.804;23.342;2022-10-16T00:45:22;73867.91;;;-148.52;89.54
3254;BME280;1639;42.804;23.342;2022-10-16T00:47:48;73849.28;;;-148.52;88.63
3254;BME280;1639;42.804;23.342;2022-10-16T00:50:31;73865.84;;;-148.52;86.48
3254;BME280;1639;42.804;23.342;2022-10-16T00:52:58;73861.72;;;-148.52;85.10
3254;BME280;1639;42.804;23.342;2022-10-16T00:55:26;73847.22;;;-148.52;84.26
3254;BME280;1639;42.804;23.342;2022-10-16T00:57:53;73882.41;;;-148.52;84.04
3254;BME280;1639;42.804;23.342;2022-10-16T01:00:24;73865.84;;;-148.52;82.91
3254;BME280;1639;42.804;23.342;2022-10-16T01:05:20;73905.16;;;-148.52;83.65
3254;BME280;1639;42.804;23.342;2022-10-16T01:08:08;73923.78;;;-148.52;86.05
3254;BME280;1639;42.804;23.342;2022-10-16T01:10:50;73923.78;;;-148.52;86.77
3254;BME280;1639;42.804;23.342;2022-10-16T01:13:31;73929.97;;;-148.52;87.70
3254;BME280;1639;42.804;23.342;2022-10-16T01:16:07;73936.19;;;-148.52;88.56
3254;BME280;1639;42.804;23.342;2022-10-16T01:18:44;73932.03;;;-148.52;88.42
3254;BME280;1639;42.804;23.342;2022-10-16T01:21:30;73919.63;;;-148.52;87.68
3254;BME280;1639;42.804;23.342;2022-10-16T01:29:42;73981.69;;;-148.52;82.96
3254;BME280;1639;42.804;23.342;2022-10-16T01:32:16;73987.91;;;-148.52;83.47
3254;BME280;1639;42.804;23.342;2022-10-16T01:34:49;74002.38;;;-148.52;82.75
3254;BME280;1639;42.804;23.342;2022-10-16T01:37:25;74023.06;;;-148.52;81.32
3254;BME280;1639;42.804;23.342;2022-10-16T01:39:55;74041.69;;;-148.52;80.06
3254;BME280;1639;42.804;23.342;2022-10-16T01:42:27;74045.81;;;-148.52;79.53
3254;BME280;1639;42.804;23.342;2022-10-16T01:44:56;74064.44;;;-148.52;80.29
3254;BME280;1639;42.804;23.342;2022-10-16T01:47:23;74087.19;;;-148.52;82.61
3254;BME280;1639;42.804;23.342;2022-10-16T01:49:52;74076.84;;;-148.52;82.13
3254;BME280;1639;42.804;23.342;2022-10-16T01:52:22;74081.00;;;-148.52;82.19
3254;BME280;1639;42.804;23.342;2022-10-16T01:54:52;74089.28;;;-148.52;83.03
3254;BME280;1639;42.804;23.342;2022-10-16T01:57:21;74089.28;;;-148.52;82.89
3254;BME280;1639;42.804;23.342;2022-10-16T01:59:50;74095.47;;;-148.52;82.02
3254;BME280;1639;42.804;23.342;2022-10-16T02:02:19;74093.41;;;-148.52;81.98
3254;BME280;1639;42.804;23.342;2022-10-16T02:04:48;74105.81;;;-148.52;82.23
3254;BME280;1639;42.804;23.342;2022-10-16T02:07:15;74126.50;;;-148.52;82.45
3254;BME280;1639;42.804;23.342;2022-10-16T02:09:41;74128.56;;;-148.52;82.97
3254;BME280;1639;42.804;23.342;2022-10-16T02:12:11;74122.38;;;-148.52;83.58
3254;BME280;1639;42.804;23.342;2022-10-16T02:14:39;74120.31;;;-148.52;84.63
3254;BME280;1639;42.804;23.342;2022-10-16T02:17:12;74124.44;;;-148.52;84.11
3254;BME280;1639;42.804;23.342;2022-10-16T02:19:38;74130.66;;;-148.52;84.88
3254;BME280;1639;42.804;23.342;2022-10-16T02:22:05;74118.22;;;-148.52;84.82
3254;BME280;1639;42.804;23.342;2022-10-16T02:24:55;74132.72;;;-148.52;86.74
3254;BME280;1639;42.804;23.342;2022-10-16T02:27:30;74151.34;;;-148.52;86.75
3254;BME280;1639;42.804;23.342;2022-10-16T02:30:13;74155.47;;;-148.52;87.53
3254;BME280;1639;42.804;23.342;2022-10-16T02:32:42;74184.44;;;-148.52;87.48
3254;BME280;1639;42.804;23.342;2022-10-16T02:35:08;74180.28;;;-148.52;87.01
3254;BME280;1639;42.804;23.342;2022-10-16T02:37:36;74184.44;;;-148.52;87.50
3254;BME280;1639;42.804;23.342;2022-10-16T02:40:03;74188.56;;;-148.52;87.93
3254;BME280;1639;42.804;23.342;2022-10-16T02:42:37;74180.28;;;-148.52;87.54
3254;BME280;1639;42.804;23.342;2022-10-16T02:45:04;74159.59;;;-148.52;85.66
3254;BME280;1639;42.804;23.342;2022-10-16T02:47:30;74167.88;;;-148.52;84.49
3254;BME280;1639;42.804;23.342;2022-10-16T02:49:56;74167.88;;;-148.52;84.02
3254;BME280;1639;42.804;23.342;2022-10-16T02:52:21;74190.63;;;-148.52;85.42
3254;BME280;1639;42.804;23.342;2022-10-16T02:54:46;74176.16;;;-148.52;85.62
3254;BME280;1639;42.804;23.342;2022-10-16T02:57:12;74163.75;;;-148.52;85.65
3254;BME280;1639;42.804;23.342;2022-10-16T02:59:37;74151.34;;;-148.52;84.97
3254;BME280;1639;42.804;23.342;2022-10-16T03:02:03;74147.19;;;-148.52;86.29
3254;BME280;1639;42.804;23.342;2022-10-16T03:04:28;74134.78;;;-148.52;86.99
3254;BME280;1639;42.804;23.342;2022-10-16T03:06:53;74136.84;;;-148.52;89.63
3254;BME280;1639;42.804;23.342;2022-10-16T03:09:19;74147.19;;;-148.52;93.06
3254;BME280;1639;42.804;23.342;2022-10-16T03:11:44;74161.69;;;-148.52;96.19
3254;BME280;1639;42.804;23.342;2022-10-16T03:14:09;74178.22;;;-148.52;98.47
3254;BME280;1639;42.804;23.342;2022-10-16T03:16:35;74182.38;;;-148.52;100.00
3254;BME280;1639;42.804;23.342;2022-10-16T03:19:00;74184.44;;;-148.52;100.00
3254;BME280;1639;42.804;23.342;2022-10-16T03:21:26;74184.44;;;-148.52;100.00
3254;BME280;1639;42.804;23.342;2022-10-16T03:23:51;74186.50;;;-148.52;100.00
3254;BME280;1639;42.804;23.342;2022-10-16T03:26:17;74192.72;;;-148.52;100.00
3254;BME280;1639;42.804;23.342;2022-10-16T03:28:42;74186.50;;;-148.52;100.00
3254;BME280;1639;42.804;23.342;2022-10-16T03:31:07;74174.09;;;-148.52;100.00
3254;BME280;1639;42.804;23.342;2022-10-16T03:33:33;74172.03;;;-148.52;100.00
3254;BME280;1639;42.804;23.342;2022-10-16T03:35:58;74169.94;;;-148.52;100.00
3254;BME280;1639;42.804;23.342;2022-10-16T03:38:24;74172.03;;;-148.52;100.00
3254;BME280;1639;42.804;23.342;2022-10-16T03:40:49;74184.44;;;-148.52;100.00
3254;BME280;1639;42.804;23.342;2022-10-16T03:43:15;74192.72;;;-148.52;100.00
3254;BME280;1639;42.804;23.342;2022-10-16T03:45:40;74182.38;;;-148.52;100.00
3254;BME280;1639;42.804;23.342;2022-10-16T03:48:06;74167.88;;;-148.52;100.00
3254;BME280;1639;42.804;23.342;2022-10-16T03:50:31;74178.22;;;-148.52;100.00
3254;BME280;1639;42.804;23.342;2022-10-16T03:52:56;74182.38;;;-148.52;100.00
3254;BME280;1639;42.804;23.342;2022-10-16T03:55:22;74200.97;;;-148.52;100.00
3254;BME280;1639;42.804;23.342;2022-10-16T03:57:47;74221.66;;;-148.52;100.00
3254;BME280;1639;42.804;23.342;2022-10-16T04:00:13;74232.00;;;-148.52;100.00
3254;BME280;1639;42.804;23.342;2022-10-16T04:02:39;74229.94;;;-148.52;100.00
3254;BME280;1639;42.804;23.342;2022-10-16T04:05:04;74217.53;;;-148.52;100.00
3254;BME280;1639;42.804;23.342;2022-10-16T04:07:30;74221.66;;;-148.52;100.00
3254;BME280;1639;42.804;23.342;2022-10-16T04:09:55;74238.22;;;-148.52;98.84
3254;BME280;1639;42.804;23.342;2022-10-16T04:12:22;74256.84;;;-148.52;95.36
3254;BME280;1639;42.804;23.342;2022-10-16T04:14:47;74263.03;;;-148.52;95.68
3254;BME280;1639;42.804;23.342;2022-10-16T04:17:13;74263.03;;;-148.52;95.36
3254;BME280;1639;42.804;23.342;2022-10-16T04:19:38;74263.03;;;-148.52;95.56
3254;BME280;1639;42.804;23.342;2022-10-16T04:22:03;74273.41;;;-148.52;92.92
3254;BME280;1639;42.804;23.342;2022-10-16T04:24:29;74310.63;;;-148.52;90.65
3254;BME280;1639;42.804;23.342;2022-10-16T04:26:54;74358.22;;;-148.52;90.43
3254;BME280;1639;42.804;23.342;2022-10-16T04:29:20;74407.88;;;-148.52;92.71
3254;BME280;1639;42.804;23.342;2022-10-16T04:31:46;74418.22;;;-148.52;94.26
3254;BME280;1639;42.804;23.342;2022-10-16T04:34:11;74438.91;;;-148.52;95.04
3254;BME280;1639;42.804;23.342;2022-10-16T04:36:37;74457.53;;;-148.52;95.27
3254;BME280;1639;42.804;23.342;2022-10-16T04:39:02;74453.38;;;-148.52;97.29
3254;BME280;1639;42.804;23.342;2022-10-16T04:41:28;74440.97;;;-148.52;97.71
3254;BME280;1639;42.804;23.342;2022-10-16T04:43:53;74432.69;;;-148.52;97.80
3254;BME280;1639;42.804;23.342;2022-10-16T04:46:18;74420.28;;;-148.52;98.34
3254;BME280;1639;42.804;23.342;2022-10-16T04:48:44;74399.59;;;-148.52;98.69
3254;BME280;1639;42.804;23.342;2022-10-16T04:51:10;74395.47;;;-148.52;100.00
3254;BME280;1639;42.804;23.342;2022-10-16T04:53:36;74383.03;;;-148.52;100.00
3254;BME280;1639;42.804;23.342;2022-10-16T04:56:01;74366.50;;;-148.52;100.00
3254;BME280;1639;42.804;23.342;2022-10-16T04:58:27;74380.97;;;-148.52;98.63
3254;BME280;1639;42.804;23.342;2022-10-16T05:00:53;74395.47;;;-148.52;96.38
3254;BME280;1639;42.804;23.342;2022-10-16T05:03:18;74414.09;;;-148.52;95.21
3254;BME280;1639;42.804;23.342;2022-10-16T05:05:44;74445.13;;;-148.52;94.53
3254;BME280;1639;42.804;23.342;2022-10-16T05:08:12;74449.25;;;-148.52;95.18
3254;BME280;1639;42.804;23.342;2022-10-16T05:10:38;74451.31;;;-148.52;95.30
3254;BME280;1639;42.804;23.342;2022-10-16T05:13:04;74449.25;;;-148.52;95.28
3254;BME280;1639;42.804;23.342;2022-10-16T05:15:29;74455.47;;;-148.52;96.03
3254;BME280;1639;42.804;23.342;2022-10-16T05:17:55;74453.38;;;-148.52;96.60
3254;BME280;1639;42.804;23.342;2022-10-16T05:20:23;74445.13;;;-148.52;96.15
3254;BME280;1639;42.804;23.342;2022-10-16T05:22:48;74430.63;;;-148.52;96.31
3254;BME280;1639;42.804;23.342;2022-10-16T05:25:14;74399.59;;;-148.52;96.05
3254;BME280;1639;42.804;23.342;2022-10-16T05:27:39;74366.50;;;-148.52;94.73
3254;BME280;1639;42.804;23.342;2022-10-16T05:30:05;74352.00;;;-148.52;93.66
3254;BME280;1639;42.804;23.342;2022-10-16T05:32:31;74341.66;;;-148.52;93.32
3254;BME280;1639;42.804;23.342;2022-10-16T05:34:56;74337.53;;;-148.52;92.74
3254;BME280;1639;42.804;23.342;2022-10-16T05:37:21;74316.84;;;-148.52;92.86
3254;BME280;1639;42.804;23.342;2022-10-16T05:39:47;74302.34;;;-148.52;91.71
3254;BME280;1639;42.804;23.342;2022-10-16T05:42:12;74279.59;;;-148.52;92.33
3254;BME280;1639;42.804;23.342;2022-10-16T05:44:38;74283.75;;;-148.52;92.48
3254;BME280;1639;42.804;23.342;2022-10-16T05:47:03;74263.03;;;-148.52;92.38
3254;BME280;1639;42.804;23.342;2022-10-16T05:49:28;74256.84;;;-148.52;93.59
3254;BME280;1639;42.804;23.342;2022-10-16T05:51:54;74221.66;;;-148.52;92.96
3254;BME280;1639;42.804;23.342;2022-10-16T05:54:19;74215.47;;;-148.52;93.32
3254;BME280;1639;42.804;23.342;2022-10-16T05:56:44;74192.72;;;-148.52;93.73
3254;BME280;1639;42.804;23.342;2022-10-16T05:59:10;74163.75;;;-148.52;92.75
3254;BME280;1639;42.804;23.342;2022-10-16T06:01:35;74138.91;;;-148.52;91.65
3254;BME280;1639;42.804;23.342;2022-10-16T06:04:01;74109.94;;;-148.52;89.64
3254;BME280;1639;42.804;23.342;2022-10-16T06:06:27;74078.94;;;-148.52;89.16
3254;BME280;1639;42.804;23.342;2022-10-16T06:08:54;74066.50;;;-148.52;88.04
3254;BME280;1639;42.804;23.342;2022-10-16T06:11:22;74049.97;;;-148.52;86.54
3254;BME280;1639;42.804;23.342;2022-10-16T06:13:56;74041.69;;;-148.52;85.97
3254;BME280;1639;42.804;23.342;2022-10-16T06:16:22;74058.22;;;-148.52;86.13
3254;BME280;1639;42.804;23.342;2022-10-16T06:18:50;74060.31;;;-148.52;86.98
3254;BME280;1639;42.804;23.342;2022-10-16T06:21:18;74043.75;;;-148.52;87.16
3254;BME280;1639;42.804;23.342;2022-10-16T06:23:44;74018.94;;;-148.52;86.64
3254;BME280;1639;42.804;23.342;2022-10-16T06:26:16;74014.78;;;-148.52;85.17
3254;BME280;1639;42.804;23.342;2022-10-16T06:28:41;73998.25;;;-148.52;86.03
3254;BME280;1639;42.804;23.342;2022-10-16T06:31:08;74002.38;;;-148.52;87.22
3254;BME280;1639;42.804;23.342;2022-10-16T06:33:34;74023.06;;;-148.52;88.79
3254;BME280;1639;42.804;23.342;2022-10-16T06:36:04;74010.66;;;-148.52;89.06
3254;BME280;1639;42.804;23.342;2022-10-16T06:38:31;74000.31;;;-148.52;89.83
3254;BME280;1639;42.804;23.342;2022-10-16T06:40:57;74035.47;;;-148.52;91.00
3254;BME280;1639;42.804;23.342;2022-10-16T06:43:23;74002.38;;;-148.52;91.95
3254;BME280;1639;42.804;23.342;2022-10-16T06:45:52;73952.72;;;-148.52;92.10
3254;BME280;1639;42.804;23.342;2022-10-16T06:48:18;73907.22;;;-148.52;88.42
3254;BME280;1639;42.804;23.342;2022-10-16T06:50:43;73886.53;;;-148.52;87.48
3254;BME280;1639;42.804;23.342;2022-10-16T06:53:08;73857.56;;;-148.52;86.19
3254;BME280;1639;42.804;23.342;2022-10-16T06:55:34;73843.09;;;-148.52;85.10
3254;BME280;1639;42.804;23.342;2022-10-16T06:57:59;73812.06;;;-148.52;83.51
3254;BME280;1639;42.804;23.342;2022-10-16T07:00:24;73778.97;;;-148.52;82.75
3254;BME280;1639;42.804;23.342;2022-10-16T07:02:50;73750.00;;;-148.52;79.49
3254;BME280;1639;42.804;23.342;2022-10-16T07:05:15;73752.06;;;-148.52;79.53
3254;BME280;1639;42.804;23.342;2022-10-16T07:07:41;73721.03;;;-148.52;77.94
3254;BME280;1639;42.804;23.342;2022-10-16T07:10:07;73687.94;;;-148.52;76.91
3254;BME280;1639;42.804;23.342;2022-10-16T07:12:33;73663.13;;;-148.52;74.84
3254;BME280;1639;42.804;23.342;2022-10-16T07:14:58;73677.59;;;-148.52;75.54
3254;BME280;1639;42.804;23.342;2022-10-16T07:17:23;73656.91;;;-148.52;75.59
3254;BME280;1639;42.804;23.342;2022-10-16T07:19:49;73636.22;;;-148.52;74.53
3254;BME280;1639;42.804;23.342;2022-10-16T07:22:14;73646.56;;;-148.52;73.73
3254;BME280;1639;42.804;23.342;2022-10-16T07:24:40;73673.47;;;-148.52;75.21
3254;BME280;1639;42.804;23.342;2022-10-16T07:27:05;73675.53;;;-148.52;75.55
3254;BME280;1639;42.804;23.342;2022-10-16T07:29:30;73650.72;;;-148.52;75.54
3254;BME280;1639;42.804;23.342;2022-10-16T07:31:56;73599.00;;;-148.52;74.75
3254;BME280;1639;42.804;23.342;2022-10-16T07:34:21;73611.41;;;-148.52;73.84
3254;BME280;1639;42.804;23.342;2022-10-16T07:36:48;73617.63;;;-148.52;75.11
3254;BME280;1639;42.804;23.342;2022-10-16T07:39:14;73567.97;;;-148.52;73.37
3254;BME280;1639;42.804;23.342;2022-10-16T07:41:39;73539.00;;;-148.52;71.44
3254;BME280;1639;42.804;23.342;2022-10-16T07:44:05;73510.06;;;-148.52;71.90
3254;BME280;1639;42.804;23.342;2022-10-16T07:46:31;73476.97;;;-148.52;70.46
3254;BME280;1639;42.804;23.342;2022-10-16T07:48:58;73501.78;;;-148.52;71.44
3254;BME280;1639;42.804;23.342;2022-10-16T07:51:25;73481.09;;;-148.52;71.28
3254;BME280;1639;42.804;23.342;2022-10-16T07:53:52;73429.38;;;-148.52;69.89
3254;BME280;1639;42.804;23.342;2022-10-16T07:56:18;73404.56;;;-148.52;69.52
3254;BME280;1639;42.804;23.342;2022-10-16T07:58:44;73381.81;;;-148.52;67.08
3254;BME280;1639;42.804;23.342;2022-10-16T08:01:12;73332.16;;;-148.52;66.19
3254;BME280;1639;42.804;23.342;2022-10-16T08:03:40;73319.75;;;-148.52;65.22
3254;BME280;1639;42.804;23.342;2022-10-16T08:06:06;73292.88;;;-148.52;64.71
3254;BME280;1639;42.804;23.342;2022-10-16T08:08:32;73278.38;;;-148.52;63.95
3254;BME280;1639;42.804;23.342;2022-10-16T08:10:57;73330.09;;;-148.52;65.60
3254;BME280;1639;42.804;23.342;2022-10-16T08:13:23;73270.13;;;-148.52;65.20
3254;BME280;1639;42.804;23.342;2022-10-16T08:15:49;73228.75;;;-148.52;62.40
3254;BME280;1639;42.804;23.342;2022-10-16T08:18:15;73220.47;;;-148.52;61.19
3254;BME280;1639;42.804;23.342;2022-10-16T08:20:41;73218.41;;;-148.52;60.72
3254;BME280;1639;42.804;23.342;2022-10-16T08:23:07;73179.09;;;-148.52;60.46
3254;BME280;1639;42.804;23.342;2022-10-16T08:25:35;73146.00;;;-148.52;59.13
3254;BME280;1639;42.804;23.342;2022-10-16T08:28:04;73127.41;;;-148.52;57.48
3254;BME280;1639;42.804;23.342;2022-10-16T08:30:30;73119.13;;;-148.52;57.49
3254;BME280;1639;42.804;23.342;2022-10-16T08:32:56;73098.44;;;-148.52;53.71
3254;BME280;1639;42.804;23.342;2022-10-16T08:35:23;73094.31;;;-148.52;52.38
3254;BME280;1639;42.804;23.342;2022-10-16T08:37:49;73079.84;;;-148.52;53.56
3254;BME280;1639;42.804;23.342;2022-10-16T08:40:24;73055.00;;;-148.52;52.48
3254;BME280;1639;42.804;23.342;2022-10-16T08:45:34;73036.41;;;-148.52;50.45
3254;BME280;1639;42.804;23.342;2022-10-16T08:48:22;73042.59;;;-148.52;49.27
3254;BME280;1639;42.804;23.342;2022-10-16T08:50:51;73038.47;;;-148.52;49.64
3254;BME280;1639;42.804;23.342;2022-10-16T08:53:27;73005.38;;;-148.52;48.93
3254;BME280;1639;42.804;23.342;2022-10-16T08:55:55;73046.75;;;-148.52;49.44
3254;BME280;1639;42.804;23.342;2022-10-16T08:58:23;73050.88;;;-148.52;49.92
3254;BME280;1639;42.804;23.342;2022-10-16T09:00:56;73129.47;;;-148.52;51.24
3254;BME280;1639;42.804;23.342;2022-10-16T09:08:46;73075.69;;;-148.52;49.14
3254;BME280;1639;42.804;23.342;2022-10-16T09:11:38;73067.41;;;-148.52;49.34
3254;BME280;1639;42.804;23.342;2022-10-16T09:17:19;73050.88;;;-148.52;48.84
3254;BME280;1639;42.804;23.342;2022-10-16T09:19:51;73017.78;;;-148.52;48.08
3254;BME280;1639;42.804;23.342;2022-10-16T09:22:21;72990.91;;;-148.52;47.90
3254;BME280;1639;42.804;23.342;2022-10-16T09:24:51;72970.22;;;-148.52;47.37
3254;BME280;1639;42.804;23.342;2022-10-16T09:27:16;72992.97;;;-148.52;46.98
3254;BME280;1639;42.804;23.342;2022-10-16T09:29:42;72997.09;;;-148.52;47.26
3254;BME280;1639;42.804;23.342;2022-10-16T09:32:12;72972.28;;;-148.52;46.87
3254;BME280;1639;42.804;23.342;2022-10-16T09:34:43;72959.88;;;-148.52;46.96
3254;BME280;1639;42.804;23.342;2022-10-16T09:37:14;72937.13;;;-148.52;45.14
3254;BME280;1639;42.804;23.342;2022-10-16T09:39:50;72955.75;;;-148.52;46.34
3254;BME280;1639;42.804;23.342;2022-10-16T09:42:21;72935.06;;;-148.52;45.43
3254;BME280;1639;42.804;23.342;2022-10-16T09:44:49;72939.19;;;-148.52;45.79
3254;BME280;1639;42.804;23.342;2022-10-16T09:47:21;72955.75;;;-148.52;44.76
3254;BME280;1639;42.804;23.342;2022-10-16T09:52:24;72920.56;;;-148.52;45.26
3254;BME280;1639;42.804;23.342;2022-10-16T09:54:55;72912.31;;;-148.52;44.00
3254;BME280;1639;42.804;23.342;2022-10-16T09:57:22;73028.13;;;-148.52;45.47
3254;BME280;1639;42.804;23.342;2022-10-16T09:59:55;72964.00;;;-148.52;44.80
3254;BME280;1639;42.804;23.342;2022-10-16T10:02:30;72937.13;;;-148.52;43.84
3254;BME280;1639;42.804;23.342;2022-10-16T10:04:56;72914.38;;;-148.52;44.05
3254;BME280;1639;42.804;23.342;2022-10-16T10:07:27;72906.09;;;-148.52;44.27
3254;BME280;1639;42.804;23.342;2022-10-16T10:09:55;72904.03;;;-148.52;43.58
3254;BME280;1639;42.804;23.342;2022-10-16T10:12:27;72910.25;;;-148.52;44.81
3254;BME280;1639;42.804;23.342;2022-10-16T10:14:55;72891.63;;;-148.52;43.64
3254;BME280;1639;42.804;23.342;2022-10-16T10:17:27;72877.16;;;-148.52;43.06
3254;BME280;1639;42.804;23.342;2022-10-16T10:19:58;72856.47;;;-148.52;43.53
3254;BME280;1639;42.804;23.342;2022-10-16T10:22:27;72829.56;;;-148.52;44.02
3254;BME280;1639;42.804;23.342;2022-10-16T10:25:07;72825.44;;;-148.52;41.71
3254;BME280;1639;42.804;23.342;2022-10-16T10:28:07;72877.16;;;-148.52;42.44
3254;BME280;1639;42.804;23.342;2022-10-16T10:31:02;72856.47;;;-148.52;42.99
3254;BME280;1639;42.804;23.342;2022-10-16T10:36:27;72885.41;;;-148.52;42.82
3254;BME280;1639;42.804;23.342;2022-10-16T10:38:56;72846.13;;;-148.52;43.38
3254;BME280;1639;42.804;23.342;2022-10-16T10:46:48;72802.69;;;-148.52;40.41
3254;BME280;1639;42.804;23.342;2022-10-16T10:54:50;72796.50;;;-148.52;39.73
3254;BME280;1639;42.804;23.342;2022-10-16T10:57:42;72782.00;;;-148.52;41.80
3254;BME280;1639;42.804;23.342;2022-10-16T11:06:12;72769.59;;;-148.52;40.03
3254;BME280;1639;42.804;23.342;2022-10-16T11:08:46;72748.91;;;-148.52;40.39
3254;BME280;1639;42.804;23.342;2022-10-16T11:11:39;72765.47;;;-148.52;39.69
3254;BME280;1639;42.804;23.342;2022-10-16T11:16:43;72742.72;;;-148.52;40.86
3254;BME280;1639;42.804;23.342;2022-10-16T11:22:16;72753.06;;;-148.52;41.02
3254;BME280;1639;42.804;23.342;2022-10-16T11:24:47;72722.03;;;-148.52;40.35
3254;BME280;1639;42.804;23.342;2022-10-16T11:27:19;72715.84;;;-148.52;39.92
3254;BME280;1639;42.804;23.342;2022-10-16T11:29:54;72691.00;;;-148.52;41.12
3254;BME280;1639;42.804;23.342;2022-10-16T11:32:26;72695.16;;;-148.52;39.31
3254;BME280;1639;42.804;23.342;2022-10-16T11:34:58;72719.97;;;-148.52;39.94
3254;BME280;1639;42.804;23.342;2022-10-16T11:37:32;72746.84;;;-148.52;39.26
3254;BME280;1639;42.804;23.342;2022-10-16T11:40:37;72767.53;;;-148.52;39.85
3254;BME280;1639;42.804;23.342;2022-10-16T11:43:15;72792.34;;;-148.52;40.65
3254;BME280;1639;42.804;23.342;2022-10-16T11:45:49;72790.28;;;-148.52;39.43
3254;BME280;1639;42.804;23.342;2022-10-16T11:51:07;72755.13;;;-148.52;38.07
3254;BME280;1639;42.804;23.342;2022-10-16T11:54:02;72742.72;;;-148.52;38.47
3254;BME280;1639;42.804;23.342;2022-10-16T11:56:30;72728.25;;;-148.52;40.10
3254;BME280;1639;42.804;23.342;2022-10-16T11:59:05;72738.59;;;-148.52;33.78
3254;BME280;1639;42.804;23.342;2022-10-16T12:01:44;72740.66;;;-148.52;32.61
3254;BME280;1639;42.804;23.342;2022-10-16T12:04:34;72740.66;;;-148.52;33.06
3254;BME280;1639;42.804;23.342;2022-10-16T12:07:13;72751.00;;;-148.52;32.73
3254;BME280;1639;42.804;23.342;2022-10-16T12:09:40;72744.78;;;-148.52;32.10
3254;BME280;1639;42.804;23.342;2022-10-16T12:12:38;72744.78;;;-148.52;32.06
3254;BME280;1639;42.804;23.342;2022-10-16T12:17:51;72759.25;;;-148.52;31.61
3254;BME280;1639;42.804;23.342;2022-10-16T12:22:55;72773.75;;;-148.52;28.57
3254;BME280;1639;42.804;23.342;2022-10-16T12:28:01;72796.50;;;-148.52;32.96
3254;BME280;1639;42.804;23.342;2022-10-16T12:30:30;72777.88;;;-148.52;33.55
3254;BME280;1639;42.804;23.342;2022-10-16T12:33:16;72763.41;;;-148.52;33.30
3254;BME280;1639;42.804;23.342;2022-10-16T12:35:45;72765.47;;;-148.52;32.02
3254;BME280;1639;42.804;23.342;2022-10-16T12:38:49;72767.53;;;-148.52;32.46
3254;BME280;1639;42.804;23.342;2022-10-16T12:41:38;72757.19;;;-148.52;29.67
3254;BME280;1639;42.804;23.342;2022-10-16T12:44:05;72748.91;;;-148.52;30.12
3254;BME280;1639;42.804;23.342;2022-10-16T12:49:07;72728.25;;;-148.52;30.27
3254;BME280;1639;42.804;23.342;2022-10-16T12:51:36;72717.91;;;-148.52;29.63
3254;BME280;1639;42.804;23.342;2022-10-16T12:54:16;72744.78;;;-148.52;32.64
3254;BME280;1639;42.804;23.342;2022-10-16T13:00:00;72769.59;;;-148.52;32.23
3254;BME280;1639;42.804;23.342;2022-10-16T13:11:29;72798.56;;;-148.52;33.83
3254;BME280;1639;42.804;23.342;2022-10-16T13:14:26;72798.56;;;-148.52;33.35
3254;BME280;1639;42.804;23.342;2022-10-16T13:17:02;72821.31;;;-148.52;33.02
3254;BME280;1639;42.804;23.342;2022-10-16T13:28:22;72842.00;;;-148.52;31.52
3254;BME280;1639;42.804;23.342;2022-10-16T13:30:54;72817.16;;;-148.52;31.20
3254;BME280;1639;42.804;23.342;2022-10-16T13:33:30;72813.03;;;-148.52;31.44
3254;BME280;1639;42.804;23.342;2022-10-16T13:35:57;72817.16;;;-148.52;31.81
3254;BME280;1639;42.804;23.342;2022-10-16T13:38:28;72808.91;;;-148.52;31.87
3254;BME280;1639;42.804;23.342;2022-10-16T13:40:58;72825.44;;;-148.52;31.76
3254;BME280;1639;42.804;23.342;2022-10-16T13:43:28;72856.47;;;-148.52;32.28
3254;BME280;1639;42.804;23.342;2022-10-16T13:46:05;72868.88;;;-148.52;33.14
3254;BME280;1639;42.804;23.342;2022-10-16T13:48:31;72864.75;;;-148.52;33.57
3254;BME280;1639;42.804;23.342;2022-10-16T13:51:18;72875.06;;;-148.52;33.39
3254;BME280;1639;42.804;23.342;2022-10-16T13:53:44;72883.34;;;-148.52;34.21
3254;BME280;1639;42.804;23.342;2022-10-16T13:56:15;72901.97;;;-148.52;34.42
3254;BME280;1639;42.804;23.342;2022-10-16T13:58:41;72885.41;;;-148.52;34.77
3254;BME280;1639;42.804;23.342;2022-10-16T14:01:18;72885.41;;;-148.52;35.13
3254;BME280;1639;42.804;23.342;2022-10-16T14:03:45;72889.56;;;-148.52;35.59
3254;BME280;1639;42.804;23.342;2022-10-16T14:06:18;72933.00;;;-148.52;35.59
3254;BME280;1639;42.804;23.342;2022-10-16T14:08:55;72941.25;;;-148.52;36.10
3254;BME280;1639;42.804;23.342;2022-10-16T14:11:24;72943.31;;;-148.52;36.38
3254;BME280;1639;42.804;23.342;2022-10-16T14:13:50;72964.00;;;-148.52;35.74
3254;BME280;1639;42.804;23.342;2022-10-16T14:16:18;72961.94;;;-148.52;36.35
3254;BME280;1639;42.804;23.342;2022-10-16T14:18:48;72959.88;;;-148.52;35.65
3254;BME280;1639;42.804;23.342;2022-10-16T14:21:18;72982.63;;;-148.52;35.71
3254;BME280;1639;42.804;23.342;2022-10-16T14:23:43;72984.69;;;-148.52;35.53